createdAt,value
2023-04-13T00:00:42.176Z,74.20
2023-04-13T00:03:12.537Z,74.20
2023-04-13T00:05:39.849Z,74.30
2023-04-13T00:08:07.751Z,74.40
2023-04-13T00:10:41.476Z,74.70
2023-04-13T00:13:10.609Z,74.90
2023-04-13T00:15:41.900Z,75.00
2023-04-13T00:18:10.656Z,75.00
2023-04-13T00:20:40.999Z,74.90
2023-04-13T00:23:08.566Z,74.90
2023-04-13T00:25:35.372Z,74.90
2023-04-13T00:28:03.750Z,74.90
2023-04-13T00:30:30.760Z,75.80
2023-04-13T00:32:57.649Z,75.00
2023-04-13T00:35:27.813Z,75.30
2023-04-13T00:37:54.717Z,75.40
2023-04-13T00:40:21.606Z,75.10
2023-04-13T00:42:50.646Z,75.50
2023-04-13T00:45:19.830Z,75.70
2023-04-13T00:47:49.535Z,75.70
2023-04-13T00:50:21.178Z,75.90
2023-04-13T00:52:48.983Z,76.30
2023-04-13T00:55:21.132Z,75.80
2023-04-13T00:57:50.539Z,75.90
2023-04-13T01:00:17.993Z,75.90
2023-04-13T01:02:44.980Z,76.10
2023-04-13T01:05:15.263Z,76.10
2023-04-13T01:07:59.492Z,76.40
2023-04-13T01:10:43.506Z,77.10
2023-04-13T01:13:31.562Z,77.70
2023-04-13T01:16:19.114Z,76.60
2023-04-13T01:18:50.801Z,75.50
2023-04-13T01:21:24.192Z,76.30
2023-04-13T01:24:45.580Z,76.80
2023-04-13T01:27:42.310Z,79.00
2023-04-13T01:30:11.180Z,77.30
2023-04-13T01:32:40.975Z,76.50
2023-04-13T01:35:10.635Z,76.80
2023-04-13T01:37:38.464Z,76.90
2023-04-13T01:40:10.217Z,77.00
2023-04-13T01:42:38.700Z,77.60
2023-04-13T01:45:27.380Z,77.30
2023-04-13T01:48:25.039Z,77.50
2023-04-13T01:51:00.703Z,78.60
2023-04-13T01:53:35.782Z,77.50
2023-04-13T01:56:05.124Z,77.70
2023-04-13T01:58:34.442Z,77.60
2023-04-13T02:01:01.239Z,77.60
2023-04-13T02:03:28.744Z,77.10
2023-04-13T02:05:56.727Z,77.60
2023-04-13T02:08:23.847Z,77.60
2023-04-13T02:10:50.555Z,77.70
2023-04-13T02:13:17.281Z,78.00
2023-04-13T02:15:44.680Z,77.80
2023-04-13T02:18:11.762Z,77.80
2023-04-13T02:20:44.206Z,77.50
2023-04-13T02:23:14.938Z,77.60
2023-04-13T02:25:44.773Z,77.70
2023-04-13T02:28:13.545Z,77.80
2023-04-13T02:30:40.355Z,77.50
2023-04-13T02:33:09.482Z,77.10
2023-04-13T02:35:38.692Z,77.90
2023-04-13T02:38:10.752Z,77.40
2023-04-13T02:40:38.774Z,78.10
2023-04-13T02:43:05.593Z,77.30
2023-04-13T02:45:33.015Z,77.20
2023-04-13T02:47:59.845Z,77.20
2023-04-13T02:50:27.940Z,76.90
2023-04-13T02:52:54.813Z,76.90
2023-04-13T02:55:21.717Z,76.70
2023-04-13T02:57:49.766Z,76.30
2023-04-13T03:00:16.974Z,76.30
2023-04-13T03:02:44.798Z,76.30
2023-04-13T03:05:12.857Z,76.20
2023-04-13T03:07:39.873Z,76.30
2023-04-13T03:10:09.023Z,76.40
2023-04-13T03:12:36.871Z,76.40
2023-04-13T03:15:07.427Z,76.20
2023-04-13T03:17:34.277Z,76.20
2023-04-13T03:20:01.110Z,76.20
2023-04-13T03:22:30.573Z,76.10
2023-04-13T03:24:57.471Z,76.00
2023-04-13T03:27:24.241Z,76.20
2023-04-13T03:29:51.005Z,76.30
2023-04-13T03:32:18.460Z,76.60
2023-04-13T03:37:12.770Z,75.90
2023-04-13T03:39:39.584Z,76.30
2023-04-13T03:42:06.399Z,76.90
2023-04-13T03:44:33.534Z,76.10
2023-04-13T03:47:01.299Z,76.60
2023-04-13T03:49:28.460Z,75.90
2023-04-13T03:51:55.642Z,76.70
2023-04-13T03:54:22.464Z,76.70
2023-04-13T03:56:50.045Z,76.70
2023-04-13T03:59:16.814Z,76.70
2023-04-13T04:01:43.614Z,76.50
2023-04-13T04:04:10.873Z,76.40
2023-04-13T04:06:37.700Z,75.90
2023-04-13T04:09:04.716Z,76.30
2023-04-13T04:11:31.429Z,76.20
2023-04-13T04:13:59.219Z,76.20
2023-04-13T04:16:26.227Z,76.20
2023-04-13T04:18:53.041Z,76.10
2023-04-13T04:21:21.681Z,75.60
2023-04-13T04:23:48.623Z,76.10
2023-04-13T04:26:15.377Z,76.00
2023-04-13T04:28:42.163Z,75.80
2023-04-13T04:31:10.776Z,75.70
2023-04-13T04:33:40.747Z,75.80
2023-04-13T04:36:10.144Z,75.70
2023-04-13T04:38:36.962Z,75.60
2023-04-13T04:41:03.862Z,75.80
2023-04-13T04:43:30.685Z,75.70
2023-04-13T04:45:58.102Z,75.70
2023-04-13T04:48:26.923Z,77.10
2023-04-13T04:50:55.942Z,76.00
2023-04-13T04:53:23.093Z,76.00
2023-04-13T04:55:50.251Z,76.00
2023-04-13T04:58:18.680Z,75.60
2023-04-13T05:00:46.761Z,76.10
2023-04-13T05:03:13.616Z,76.20
2023-04-13T05:05:41.065Z,76.50
2023-04-13T05:08:08.659Z,76.30
2023-04-13T05:10:35.809Z,75.70
2023-04-13T05:13:02.618Z,76.40
2023-04-13T05:15:29.392Z,76.30
2023-04-13T05:17:56.554Z,76.50
2023-04-13T05:20:23.346Z,76.60
2023-04-13T05:22:50.133Z,76.10
2023-04-13T05:25:17.397Z,76.40
2023-04-13T05:27:44.393Z,76.80
2023-04-13T05:30:12.093Z,76.40
2023-04-13T05:32:38.932Z,76.90
2023-04-13T05:35:07.037Z,76.40
2023-04-13T05:37:33.820Z,76.90
2023-04-13T05:40:00.567Z,76.90
2023-04-13T05:42:28.515Z,76.60
2023-04-13T05:47:24.100Z,76.20
2023-04-13T05:49:52.541Z,76.90
2023-04-13T05:52:19.444Z,76.80
2023-04-13T05:54:46.388Z,76.70
2023-04-13T05:57:13.184Z,76.60
2023-04-13T05:59:40.216Z,76.90
2023-04-13T06:02:07.202Z,76.50
2023-04-13T06:04:34.915Z,76.60
2023-04-13T06:07:03.051Z,76.60
2023-04-13T06:09:29.871Z,76.10
2023-04-13T06:11:57.156Z,76.80
2023-04-13T06:14:24.967Z,76.20
2023-04-13T06:16:52.867Z,76.70
2023-04-13T06:19:19.758Z,76.60
2023-04-13T06:21:46.493Z,76.60
2023-04-13T06:24:13.572Z,76.40
2023-04-13T06:26:40.436Z,76.40
2023-04-13T06:29:07.288Z,76.40
2023-04-13T06:31:34.092Z,76.20
2023-04-13T06:34:01.076Z,76.10
2023-04-13T06:36:27.857Z,75.90
2023-04-13T06:38:54.612Z,75.70
2023-04-13T06:41:21.474Z,75.70
2023-04-13T06:43:50.834Z,75.60
2023-04-13T06:46:19.525Z,75.50
2023-04-13T06:48:47.802Z,75.40
2023-04-13T06:51:14.577Z,75.10
2023-04-13T06:53:41.444Z,75.00
2023-04-13T06:56:08.619Z,74.30
2023-04-13T06:58:36.598Z,74.70
2023-04-13T07:01:04.205Z,74.70
2023-04-13T07:03:31.964Z,74.20
2023-04-13T07:05:59.125Z,74.50
2023-04-13T07:08:25.915Z,74.20
2023-04-13T07:10:57.667Z,73.50
2023-04-13T07:13:25.789Z,73.70
2023-04-13T07:15:52.775Z,73.60
2023-04-13T07:18:19.758Z,73.30
2023-04-13T07:23:14.262Z,72.00
2023-04-13T07:25:41.143Z,72.40
2023-04-13T07:28:07.885Z,71.60
2023-04-13T07:30:34.618Z,72.20
2023-04-13T07:33:01.579Z,72.00
2023-04-13T07:35:28.573Z,71.90
2023-04-13T07:37:55.367Z,71.80
2023-04-13T07:40:22.167Z,70.60
2023-04-13T07:42:51.831Z,71.30
2023-04-13T07:45:20.555Z,70.60
2023-04-13T07:47:48.185Z,70.50
2023-04-13T07:50:16.590Z,71.10
2023-04-13T07:52:43.386Z,71.10
2023-04-13T07:55:11.510Z,71.00
2023-04-13T07:57:38.248Z,70.80
2023-04-13T08:00:06.338Z,70.60
2023-04-13T08:02:33.521Z,70.30
2023-04-13T08:05:01.076Z,69.30
2023-04-13T08:07:29.441Z,69.80
2023-04-13T08:09:56.190Z,69.30
2023-04-13T08:12:23.108Z,69.20
2023-04-13T08:14:49.961Z,69.00
2023-04-13T08:17:16.842Z,68.70
2023-04-13T08:22:11.432Z,67.60
2023-04-13T08:24:38.229Z,67.90
2023-04-13T08:27:07.440Z,67.50
2023-04-13T08:29:34.196Z,67.10
2023-04-13T08:32:01.706Z,67.00
2023-04-13T08:34:28.523Z,66.70
2023-04-13T08:36:55.387Z,66.50
2023-04-13T08:39:22.222Z,65.90
2023-04-13T08:41:49.145Z,65.80
2023-04-13T08:44:16.109Z,65.00
2023-04-13T08:46:45.912Z,64.70
2023-04-13T08:49:13.593Z,64.00
2023-04-13T08:51:43.472Z,64.40
2023-04-13T08:54:12.870Z,65.80
2023-04-13T08:56:46.681Z,64.50
2023-04-13T08:59:16.475Z,63.40
2023-04-13T09:01:47.362Z,64.00
2023-04-13T09:04:20.185Z,63.60
2023-04-13T09:06:51.749Z,63.20
2023-04-13T09:09:20.537Z,62.70
2023-04-13T09:11:49.934Z,60.20
2023-04-13T09:14:22.493Z,61.60
2023-04-13T09:16:49.884Z,61.40
2023-04-13T09:19:29.314Z,60.40
2023-04-13T09:21:56.144Z,59.70
2023-04-13T09:24:23.499Z,60.90
2023-04-13T09:26:51.003Z,60.30
2023-04-13T09:29:20.392Z,60.90
2023-04-13T09:34:26.973Z,59.80
2023-04-13T09:36:56.081Z,58.90
2023-04-13T09:39:28.969Z,59.90
2023-04-13T09:41:56.621Z,59.70
2023-04-13T09:44:34.854Z,59.80
2023-04-13T09:47:04.310Z,59.90
2023-04-13T09:49:43.029Z,60.20
2023-04-13T09:52:23.922Z,59.10
2023-04-13T09:54:55.659Z,58.90
2023-04-13T09:57:32.132Z,58.50
2023-04-13T10:00:08.226Z,58.90
2023-04-13T10:02:37.568Z,59.10
2023-04-13T10:05:05.585Z,57.10
2023-04-13T10:07:37.036Z,58.60
2023-04-13T10:10:04.786Z,58.30
2023-04-13T10:12:36.889Z,58.40
2023-04-13T10:15:50.081Z,58.00
2023-04-13T10:19:01.859Z,57.20
2023-04-13T10:21:39.230Z,57.50
2023-04-13T10:24:12.105Z,58.00
2023-04-13T10:26:41.388Z,58.10
2023-04-13T10:29:10.212Z,57.50
2023-04-13T10:31:46.647Z,57.60
2023-04-13T10:34:35.127Z,57.60
2023-04-13T10:37:06.677Z,56.50
2023-04-13T10:39:35.907Z,56.40
2023-04-13T10:42:05.840Z,56.80
2023-04-13T10:44:51.333Z,57.00
2023-04-13T10:47:22.134Z,55.90
2023-04-13T10:49:50.591Z,56.80
2023-04-13T10:52:17.652Z,56.00
2023-04-13T10:54:45.051Z,56.40
2023-04-13T10:57:12.631Z,56.30
2023-04-13T10:59:58.927Z,54.50
2023-04-13T11:02:32.549Z,54.30
2023-04-13T11:05:00.997Z,55.70
2023-04-13T11:07:28.649Z,54.90
2023-04-13T11:12:28.477Z,55.10
2023-04-13T11:14:55.414Z,55.60
2023-04-13T11:17:22.667Z,55.40
2023-04-13T11:19:54.964Z,55.30
2023-04-13T11:22:24.337Z,55.10
2023-04-13T11:24:52.174Z,54.70
2023-04-13T11:27:26.973Z,54.60
2023-04-13T11:30:05.946Z,54.40
2023-04-13T11:32:34.529Z,54.00
2023-04-13T11:35:12.165Z,54.10
2023-04-13T11:37:41.000Z,53.80
2023-04-13T11:40:21.266Z,53.70
2023-04-13T11:42:51.483Z,54.10
2023-04-13T11:45:21.230Z,54.10
2023-04-13T11:47:50.793Z,53.90
2023-04-13T11:50:19.924Z,53.70
2023-04-13T11:52:51.294Z,53.50
2023-04-13T11:55:23.828Z,53.30
2023-04-13T11:57:53.337Z,52.90
2023-04-13T12:00:27.039Z,53.20
2023-04-13T12:05:34.109Z,53.20
2023-04-13T12:08:04.338Z,52.50
2023-04-13T12:13:20.435Z,52.60
2023-04-13T12:16:06.040Z,52.80
2023-04-13T12:18:47.034Z,52.70
2023-04-13T12:21:20.444Z,52.10
2023-04-13T12:23:55.498Z,51.80
2023-04-13T12:27:10.087Z,51.70
2023-04-13T12:29:12.632Z,52.20
2023-04-13T12:31:39.999Z,52.10
2023-04-13T12:34:07.899Z,51.00
2023-04-13T12:36:36.502Z,51.40
2023-04-13T12:39:04.797Z,51.70
2023-04-13T12:41:32.241Z,51.70
2023-04-13T12:43:59.120Z,51.80
2023-04-13T12:46:26.764Z,51.70
2023-04-13T12:48:54.084Z,51.50
2023-04-13T12:51:21.143Z,51.40
2023-04-13T12:53:47.938Z,51.00
2023-04-13T12:56:15.734Z,51.10
2023-04-13T12:58:42.684Z,51.10
2023-04-13T13:01:09.652Z,51.10
2023-04-13T13:03:39.183Z,50.70
2023-04-13T13:06:08.072Z,50.60
2023-04-13T13:08:39.296Z,51.10
2023-04-13T13:11:08.301Z,51.00
2023-04-13T13:13:35.221Z,51.30
2023-04-13T13:16:02.007Z,51.10
2023-04-13T13:18:39.025Z,51.10
2023-04-13T13:21:13.829Z,51.00
2023-04-13T13:23:40.582Z,51.10
2023-04-13T13:28:40.500Z,50.60
2023-04-13T13:31:08.389Z,50.70
2023-04-13T13:33:35.325Z,50.70
2023-04-13T13:36:02.494Z,50.80
2023-04-13T13:38:29.320Z,50.50
2023-04-13T13:40:56.199Z,50.50
2023-04-13T13:43:23.054Z,50.60
2023-04-13T13:48:17.444Z,50.00
2023-04-13T13:50:44.289Z,50.60
2023-04-13T13:53:11.707Z,50.40
2023-04-13T13:55:38.533Z,49.90
2023-04-13T13:58:05.307Z,50.00
2023-04-13T14:00:32.257Z,49.90
2023-04-13T14:02:59.428Z,50.10
2023-04-13T14:05:26.453Z,49.50
2023-04-13T14:07:53.349Z,49.80
2023-04-13T14:10:20.428Z,50.10
2023-04-13T14:12:50.145Z,49.30
2023-04-13T14:15:17.677Z,49.10
2023-04-13T14:17:48.401Z,50.00
2023-04-13T14:20:22.557Z,48.90
2023-04-13T14:22:49.396Z,50.00
2023-04-13T14:25:16.165Z,50.10
2023-04-13T14:27:43.251Z,49.50
2023-04-13T14:30:10.569Z,49.90
2023-04-13T14:32:37.346Z,49.80
2023-04-13T14:35:04.544Z,49.80
2023-04-13T14:37:31.272Z,49.80
2023-04-13T14:39:58.178Z,49.60
2023-04-13T14:42:25.048Z,49.50
2023-04-13T14:44:52.019Z,49.40
2023-04-13T14:47:19.507Z,49.30
2023-04-13T14:49:47.594Z,49.10
2023-04-13T14:52:14.789Z,49.20
2023-04-13T14:54:41.935Z,49.10
2023-04-13T14:57:10.504Z,49.00
2023-04-13T14:59:37.490Z,49.00
2023-04-13T15:02:06.407Z,49.20
2023-04-13T15:04:33.367Z,49.20
2023-04-13T15:07:00.208Z,49.40
2023-04-13T15:09:27.361Z,49.40
2023-04-13T15:11:54.196Z,49.40
2023-04-13T15:14:21.079Z,49.50
2023-04-13T15:16:47.995Z,49.60
2023-04-13T15:19:15.759Z,49.70
2023-04-13T15:21:42.770Z,49.70
2023-04-13T15:24:11.617Z,49.80
2023-04-13T15:26:41.180Z,49.70
2023-04-13T15:29:09.253Z,49.80
2023-04-13T15:31:38.580Z,49.80
2023-04-13T15:34:06.527Z,49.80
2023-04-13T15:36:33.332Z,49.70
2023-04-13T15:39:00.814Z,49.90
2023-04-13T15:41:27.845Z,49.90
2023-04-13T15:43:56.276Z,49.80
2023-04-13T15:48:50.500Z,49.50
2023-04-13T15:51:17.331Z,49.90
2023-04-13T15:53:44.050Z,49.80
2023-04-13T15:56:10.802Z,49.80
2023-04-13T15:58:37.597Z,49.90
2023-04-13T16:01:09.958Z,49.70
2023-04-13T16:03:37.839Z,49.50
2023-04-13T16:06:04.916Z,48.90
2023-04-13T16:08:31.693Z,49.50
2023-04-13T16:10:58.929Z,49.40
2023-04-13T16:13:34.649Z,49.50
2023-04-13T16:16:08.281Z,49.60
2023-04-13T16:18:35.845Z,49.70
2023-04-13T16:21:03.694Z,49.50
2023-04-13T16:23:35.281Z,49.60
2023-04-13T16:26:02.198Z,49.60
2023-04-13T16:28:29.714Z,49.60
2023-04-13T16:30:56.798Z,49.60
2023-04-13T16:35:51.500Z,49.20
2023-04-13T16:38:18.303Z,49.70
2023-04-13T16:40:45.085Z,49.80
2023-04-13T16:45:39.127Z,49.30
2023-04-13T16:48:06.249Z,49.10
2023-04-13T16:50:33.035Z,49.90
2023-04-13T16:52:59.955Z,49.70
2023-04-13T16:55:28.532Z,49.80
2023-04-13T16:57:56.029Z,49.70
2023-04-13T17:00:23.332Z,49.70
2023-04-13T17:02:50.329Z,49.50
2023-04-13T17:05:17.365Z,49.70
2023-04-13T17:07:46.992Z,49.90
2023-04-13T17:10:14.598Z,50.00
2023-04-13T17:12:41.546Z,50.10
2023-04-13T17:15:09.954Z,49.70
2023-04-13T17:17:38.184Z,50.20
2023-04-13T17:20:06.661Z,50.00
2023-04-13T17:22:33.553Z,50.20
2023-04-13T17:25:00.980Z,50.20
2023-04-13T17:27:27.771Z,50.20
2023-04-13T17:29:54.912Z,50.20
2023-04-13T17:32:22.241Z,50.30
2023-04-13T17:34:49.935Z,50.30
2023-04-13T17:37:17.963Z,50.30
2023-04-13T17:39:50.594Z,50.30
2023-04-13T17:42:18.337Z,50.30
2023-04-13T17:44:45.185Z,50.30
2023-04-13T17:47:11.924Z,50.40
2023-04-13T17:49:38.854Z,50.40
2023-04-13T17:52:05.806Z,50.50
2023-04-13T17:54:33.182Z,50.50
2023-04-13T17:57:01.814Z,50.50
2023-04-13T18:01:56.091Z,50.20
2023-04-13T18:04:23.128Z,50.80
2023-04-13T18:06:50.019Z,50.90
2023-04-13T18:09:16.836Z,51.00
2023-04-13T18:11:43.637Z,51.10
2023-04-13T18:14:13.067Z,51.10
2023-04-13T18:16:39.823Z,51.20
2023-04-13T18:19:06.644Z,51.30
2023-04-13T18:21:33.606Z,51.40
2023-04-13T18:24:01.704Z,51.50
2023-04-13T18:26:29.124Z,51.60
2023-04-13T18:28:56.020Z,51.80
2023-04-13T18:33:51.475Z,51.40
2023-04-13T18:36:18.800Z,52.00
2023-04-13T18:38:46.129Z,52.10
2023-04-13T18:41:13.531Z,51.80
2023-04-13T18:43:40.768Z,52.30
2023-04-13T18:46:07.997Z,52.40
2023-04-13T18:48:35.756Z,52.50
2023-04-13T18:51:03.240Z,52.00
2023-04-13T18:53:30.738Z,52.70
2023-04-13T18:55:58.838Z,52.70
2023-04-13T18:58:26.463Z,52.90
2023-04-13T19:00:53.436Z,53.00
2023-04-13T19:03:20.503Z,53.10
2023-04-13T19:05:47.433Z,53.20
2023-04-13T19:08:15.403Z,53.40
2023-04-13T19:13:09.759Z,53.10
2023-04-13T19:15:36.681Z,53.70
2023-04-13T19:18:04.416Z,53.80
2023-04-13T19:20:31.577Z,54.00
2023-04-13T19:22:58.438Z,54.10
2023-04-13T19:25:25.425Z,54.20
2023-04-13T19:27:52.214Z,54.20
2023-04-13T19:30:19.663Z,53.80
2023-04-13T19:32:49.316Z,55.00
2023-04-13T19:35:16.872Z,54.60
2023-04-13T19:37:43.637Z,54.60
2023-04-13T19:42:43.988Z,54.10
2023-04-13T19:45:12.664Z,54.20
2023-04-13T19:47:40.947Z,54.80
2023-04-13T19:50:11.422Z,55.00
2023-04-13T19:52:41.448Z,54.80
2023-04-13T19:55:10.478Z,54.80
2023-04-13T19:57:41.943Z,54.90
2023-04-13T20:00:17.383Z,55.00
2023-04-13T20:02:46.973Z,55.00
2023-04-13T20:05:15.422Z,54.50
2023-04-13T20:07:42.458Z,55.10
2023-04-13T20:10:12.372Z,55.10
2023-04-13T20:12:41.448Z,54.70
2023-04-13T20:15:10.823Z,54.80
2023-04-13T20:17:37.722Z,55.10
2023-04-13T20:20:06.631Z,55.10
2023-04-13T20:22:33.605Z,55.40
2023-04-13T20:25:00.426Z,55.40
2023-04-13T20:27:27.303Z,55.50
2023-04-13T20:29:54.114Z,55.60
2023-04-13T20:34:48.774Z,55.20
2023-04-13T20:37:18.517Z,55.80
2023-04-13T20:39:51.068Z,55.80
2023-04-13T20:42:19.838Z,55.50
2023-04-13T20:44:47.167Z,55.50
2023-04-13T20:47:14.745Z,55.80
2023-04-13T20:49:51.750Z,55.70
2023-04-13T20:52:19.707Z,56.10
2023-04-13T20:54:46.479Z,56.10
2023-04-13T20:57:17.086Z,56.20
2023-04-13T20:59:44.065Z,55.70
2023-04-13T21:02:10.920Z,56.30
2023-04-13T21:04:38.277Z,56.20
2023-04-13T21:07:05.067Z,56.30
2023-04-13T21:09:31.876Z,56.30
2023-04-13T21:11:58.705Z,56.40
2023-04-13T21:14:25.831Z,56.40
2023-04-13T21:16:52.870Z,56.40
2023-04-13T21:19:20.033Z,56.50
2023-04-13T21:21:46.931Z,56.50
2023-04-13T21:24:13.969Z,56.60
2023-04-13T21:26:40.740Z,56.70
2023-04-13T21:29:07.701Z,56.80
2023-04-13T21:31:34.712Z,56.90
2023-04-13T21:34:03.627Z,56.80
2023-04-13T21:39:00.525Z,56.50
2023-04-13T21:41:27.625Z,56.90
2023-04-13T21:43:54.461Z,56.90
2023-04-13T21:46:21.428Z,56.90
2023-04-13T21:48:48.273Z,57.00
2023-04-13T21:51:15.702Z,57.00
2023-04-13T21:53:42.469Z,57.10
2023-04-13T21:58:45.659Z,56.80
2023-04-13T22:01:13.839Z,57.50
2023-04-13T22:03:47.239Z,57.40
2023-04-13T22:06:14.901Z,57.50
2023-04-13T22:08:41.731Z,57.30
2023-04-13T22:11:08.904Z,57.40
2023-04-13T22:13:35.761Z,57.50
2023-04-13T22:16:02.686Z,57.40
2023-04-13T22:18:29.568Z,57.40
2023-04-13T22:20:59.776Z,57.10
2023-04-13T22:23:26.979Z,57.60
2023-04-13T22:26:01.615Z,57.70
2023-04-13T22:28:30.432Z,57.80
2023-04-13T22:30:58.169Z,57.80
2023-04-13T22:33:25.205Z,57.80
2023-04-13T22:35:52.119Z,58.00
2023-04-13T22:38:19.419Z,58.00
2023-04-13T22:40:46.438Z,58.00
2023-04-13T22:43:13.274Z,58.20
2023-04-13T22:45:40.163Z,58.10
2023-04-13T22:48:07.055Z,58.20
2023-04-13T22:50:36.792Z,58.30
2023-04-13T22:53:03.698Z,58.40
2023-04-13T22:55:31.602Z,58.50
2023-04-13T22:57:58.500Z,58.50
2023-04-13T23:00:25.263Z,58.50
2023-04-13T23:02:55.740Z,58.60
2023-04-13T23:05:23.149Z,58.60
2023-04-13T23:07:50.515Z,58.60
2023-04-13T23:10:17.927Z,58.70
2023-04-13T23:12:46.604Z,58.70
2023-04-13T23:15:14.398Z,58.60
2023-04-13T23:17:41.341Z,58.20
2023-04-13T23:20:08.941Z,59.00
2023-04-13T23:22:35.765Z,58.70
2023-04-13T23:25:02.693Z,59.20
2023-04-13T23:27:29.451Z,59.10
2023-04-13T23:29:56.363Z,59.10
2023-04-13T23:32:23.396Z,59.10
2023-04-13T23:34:51.156Z,59.10
2023-04-13T23:37:17.947Z,59.00
2023-04-13T23:39:44.710Z,58.70
2023-04-13T23:42:11.941Z,59.00
2023-04-13T23:44:38.940Z,59.00
2023-04-13T23:47:06.142Z,58.90
2023-04-13T23:49:32.882Z,58.90
2023-04-13T23:51:59.687Z,58.80
2023-04-13T23:54:26.609Z,58.80
2023-04-13T23:56:53.347Z,58.80
2023-04-13T23:59:20.173Z,58.70
